KENV/ENV METAR and TAF weather

Enter ICAO airport designator
Station Type Date Time Source
KENV METAR 2020/06/03 15:56 UTC NOAA

KENV 031556Z AUTO 13006KT 10SM CLR 23/06 A3014 RMK AO2 SLP170 T02280061


Station Type Date Time Source
KENV Decoded METAR 2020/06/03 15:56 UTC NOAA

Wendover / Air Force Auxillary Field, UT, United States (KENV) 40-44N 114-02W 1292M
Jun 03, 2020 - 11:56 AM EDT / 2020.06.03 1556 UTC
Wind: from the SE (130 degrees) at 7 MPH (6 KT):0
Visibility: 10 mile(s):0
Sky conditions: clear
Temperature: 73.0 F (22.8 C)
Dew Point: 43.0 F (6.1 C)
Relative Humidity: 33%
Pressure (altimeter): 30.14 in. Hg (1020 hPa)
ob: KENV 031556Z AUTO 13006KT 10SM CLR 23/06 A3014 RMK AO2 SLP170 T02280061
cycle: 16

Station Type Date Time Source
KENV TAF 2020/06/03 12:22 UTC NOAA

TAF KENV 031120Z 0312/0412 28006KT P6SM FEW120
FM032100 13009KT P6SM FEW120
FM040000 34009KT P6SM SCT120
FM040900 29006KT P6SM FEW120

Example: see airport list